Ertholm — OVJX — position and weather

sailwx.info

Track history (hours):
 
Tides and Currents Weather Stations Pressure Air Temp Water Temp Dewpoint Dewpoint Depression Visibility Wind Speed Wind Dir Waves Ship Positions

Ertholm

Last reported at 2017-Oct-22 22:56 UTC. Time now 2017-Oct-23 00:55 UTC.
Position N 55°15' E 014°50'.

Length 38 m; draft 2.3 m.

Type: Ship. MMSI: 219000751.

Date/timePositionNaut miles runAvg speedWind from/ knotsBaromVisibWave heightAir tempDewpointWater temp
2017-Oct-22 22:56N 55°15' E 014°50'0 0.0
2017-Oct-22 21:08N 55°15' E 014°50'0 0.0
2017-Oct-22 20:40N 55°15' E 014°50'0 0.0
2017-Oct-22 20:27N 55°15' E 014°50'0 0.0
2017-Oct-22 17:53N 55°15' E 014°50'0 0.0
2017-Oct-22 17:19N 55°15' E 014°50'0 0.0
2017-Oct-22 15:47N 55°15' E 014°50'0 0.0
2017-Oct-22 13:52N 55°15' E 014°50'1 1.6
2017-Oct-22 13:21N 55°15' E 014°52'411.5
2017-Oct-22 13:00N 55°13' E 014°58'4 8.5
2017-Oct-22 12:30N 55°15' E 015°04'611.4
2017-Oct-22 12:00N 55°19' E 015°11'0 0.0
2017-Oct-22 11:30N 55°19' E 015°11'0 0.0
2017-Oct-22 11:00N 55°19' E 015°11'0 0.0
2017-Oct-22 10:30N 55°19' E 015°11'0 0.0
2017-Oct-22 10:00N 55°19' E 015°11'0 0.0
2017-Oct-22 09:30N 55°19' E 015°11'0 0.0
2017-Oct-22 09:00N 55°19' E 015°11'4 8.4
2017-Oct-22 08:30N 55°16' E 015°06'6 2.8
2017-Oct-22 06:31N 55°13' E 014°58'0 0.0
2017-Oct-22 06:29N 55°13' E 014°58'0 0.0
2017-Oct-22 05:59N 55°13' E 014°58'0 0.0
2017-Oct-22 05:28N 55°13' E 014°58'0 0.0
2017-Oct-22 02:49N 55°13' E 014°58'0 0.0
2017-Oct-22 02:30N 55°13' E 014°58'0 0.0
2017-Oct-22 01:59N 55°13' E 014°58'0 0.0
2017-Oct-22 01:28N 55°13' E 014°58'0 0.0
2017-Oct-22 00:58N 55°13' E 014°58'0 0.0
2017-Oct-22 00:30N 55°13' E 014°58'0 0.0
2017-Oct-21 22:21N 55°13' E 014°58'0 0.0
2017-Oct-21 21:58N 55°13' E 014°58'0 0.0
2017-Oct-21 21:27N 55°13' E 014°58'0 0.0
2017-Oct-21 20:35N 55°13' E 014°58'0 0.0
2017-Oct-21 20:25N 55°13' E 014°58'0 0.0
2017-Oct-21 20:00N 55°13' E 014°58'0 0.0
2017-Oct-21 19:30N 55°13' E 014°58'0 0.0
2017-Oct-21 18:57N 55°13' E 014°58'0 0.0
2017-Oct-21 17:54N 55°13' E 014°58'0 0.0
2017-Oct-21 16:34N 55°13' E 014°58'0 0.0
2017-Oct-21 16:18N 55°13' E 014°58'0 0.0
2017-Oct-21 15:56N 55°13' E 014°58'0 0.0
2017-Oct-21 15:28N 55°13' E 014°58'0 0.0
2017-Oct-21 14:52N 55°13' E 014°58'0 0.0
2017-Oct-21 13:56N 55°13' E 014°58'0 0.0
2017-Oct-21 13:29N 55°13' E 014°58'0 0.1
2017-Oct-21 12:58N 55°13' E 014°58'511.7
2017-Oct-21 12:30N 55°16' E 015°06'4 8.8
2017-Oct-21 12:00N 55°19' E 015°11'0 0.1
2017-Oct-21 11:30N 55°19' E 015°11'0 0.0
2017-Oct-21 11:00N 55°19' E 015°11'0 0.0
2017-Oct-21 10:30N 55°19' E 015°11'0 0.0
2017-Oct-21 10:00N 55°19' E 015°11'0 0.0
2017-Oct-21 09:30N 55°19' E 015°11'0 0.0
2017-Oct-21 09:00N 55°19' E 015°11'4 8.0
2017-Oct-21 08:30N 55°17' E 015°06'610.2
2017-Oct-21 07:56N 55°13' E 014°58'0 0.0
2017-Oct-21 07:30N 55°13' E 014°58'0 0.0
2017-Oct-21 06:02N 55°13' E 014°58'0 0.0
2017-Oct-21 05:58N 55°13' E 014°58'0 0.0
2017-Oct-21 05:13N 55°13' E 014°58'0 0.0
2017-Oct-21 04:59N 55°13' E 014°58'0 0.0
2017-Oct-21 04:29N 55°13' E 014°58'0 0.0
2017-Oct-21 04:00N 55°13' E 014°58'0 0.0
2017-Oct-21 03:28N 55°13' E 014°58'0 0.0
2017-Oct-21 02:58N 55°13' E 014°58'0 0.0
2017-Oct-21 01:14N 55°13' E 014°58'0 0.0
2017-Oct-21 00:49N 55°13' E 014°58'0 0.0
2017-Oct-21 00:26N 55°13' E 014°58'0 0.0
2017-Oct-20 23:46N 55°13' E 014°58'0 0.0
2017-Oct-20 23:30N 55°13' E 014°58'0 0.0
2017-Oct-20 22:53N 55°13' E 014°58'0 0.0
2017-Oct-20 22:25N 55°13' E 014°58'0 0.0
2017-Oct-20 21:57N 55°13' E 014°58'0 0.0
2017-Oct-20 21:05N 55°13' E 014°58'0 0.0
2017-Oct-20 20:58N 55°13' E 014°58'0 0.0
2017-Oct-20 20:30N 55°13' E 014°58'0 0.0
2017-Oct-20 19:57N 55°13' E 014°58'0 0.0
2017-Oct-20 19:29N 55°13' E 014°58'0 0.0
2017-Oct-20 19:00N 55°13' E 014°58'0 0.0
2017-Oct-20 18:29N 55°13' E 014°58'0 0.0
2017-Oct-20 18:00N 55°13' E 014°58'0 0.0
2017-Oct-20 17:30N 55°13' E 014°58'0 0.0
2017-Oct-20 17:00N 55°13' E 014°58'0 0.0
2017-Oct-20 16:30N 55°13' E 014°58'0 0.0
2017-Oct-20 15:58N 55°13' E 014°58'0 0.0
2017-Oct-20 15:30N 55°13' E 014°58'0 0.0
2017-Oct-20 15:00N 55°13' E 014°58'0 0.0
2017-Oct-20 13:57N 55°13' E 014°58'0 0.0
2017-Oct-20 13:30N 55°13' E 014°58'0 0.1
2017-Oct-20 12:55N 55°13' E 014°58'511.2
2017-Oct-20 12:30N 55°16' E 015°04'510.1
2017-Oct-20 12:00N 55°19' E 015°11'0 0.0
2017-Oct-20 11:30N 55°19' E 015°11'0 0.0
2017-Oct-20 11:00N 55°19' E 015°11'0 0.0
2017-Oct-20 10:30N 55°19' E 015°11'0 0.0
2017-Oct-20 10:00N 55°19' E 015°11'0 0.0
2017-Oct-20 09:30N 55°19' E 015°11'0 0.0
2017-Oct-20 09:00N 55°19' E 015°11'5 9.8
2017-Oct-20 08:30N 55°16' E 015°05'5 9.8
2017-Oct-20 08:00N 55°13' E 014°58'0 0.0
2017-Oct-20 07:30N 55°13' E 014°58'0 0.0
2017-Oct-20 07:00N 55°13' E 014°58'0 0.0
2017-Oct-20 06:27N 55°13' E 014°58'0 0.0
2017-Oct-20 06:00N 55°13' E 014°58'0 0.0
2017-Oct-20 05:30N 55°13' E 014°58'0 0.0
2017-Oct-20 05:00N 55°13' E 014°58'0 0.0
2017-Oct-20 04:30N 55°13' E 014°58'0 0.0
2017-Oct-20 03:59N 55°13' E 014°58'0 0.0
2017-Oct-20 03:30N 55°13' E 014°58'0 0.0
2017-Oct-20 03:00N 55°13' E 014°58'0 0.0
2017-Oct-20 02:30N 55°13' E 014°58'0 0.0
2017-Oct-20 02:00N 55°13' E 014°58'0 0.0
2017-Oct-20 01:30N 55°13' E 014°58'0 0.0
2017-Oct-20 00:59N 55°13' E 014°58'0 0.0
2017-Oct-20 00:30N 55°13' E 014°58'0 0.0
2017-Oct-19 23:57N 55°13' E 014°58'0 0.0
2017-Oct-19 23:30N 55°13' E 014°58'0 0.0
2017-Oct-19 23:00N 55°13' E 014°58'0 0.0
2017-Oct-19 22:30N 55°13' E 014°58'0 0.0
2017-Oct-19 22:00N 55°13' E 014°58'0 0.0
2017-Oct-19 21:29N 55°13' E 014°58'0 0.0
2017-Oct-19 20:55N 55°13' E 014°58'0 0.0
2017-Oct-19 20:30N 55°13' E 014°58'0 0.0
2017-Oct-19 20:00N 55°13' E 014°58'0 0.0
2017-Oct-19 19:30N 55°13' E 014°58'0 0.0
2017-Oct-19 19:00N 55°13' E 014°58'0 0.0
2017-Oct-19 18:29N 55°13' E 014°58'0 0.0
2017-Oct-19 17:53N 55°13' E 014°58'0 0.0
2017-Oct-19 17:30N 55°13' E 014°58'0 0.0
2017-Oct-19 17:00N 55°13' E 014°58'0 0.0
2017-Oct-19 16:30N 55°13' E 014°58'0 0.0
2017-Oct-19 16:00N 55°13' E 014°58'0 0.0
2017-Oct-19 15:30N 55°13' E 014°58'0 0.0
2017-Oct-19 13:33N 55°13' E 014°58'0 0.0
2017-Oct-19 13:17N 55°13' E 014°58'0 0.3
2017-Oct-19 12:57N 55°13' E 014°58'511.0
2017-Oct-19 12:30N 55°16' E 015°05'5 9.5
2017-Oct-19 12:00N 55°19' E 015°11'0 0.1
2017-Oct-19 11:30N 55°19' E 015°11'0 0.0
2017-Oct-19 11:00N 55°19' E 015°11'0 0.0
2017-Oct-19 10:30N 55°19' E 015°11'0 0.0
2017-Oct-19 10:00N 55°19' E 015°11'0 0.2
2017-Oct-19 09:30N 55°19' E 015°11'0 0.1
2017-Oct-19 09:00N 55°19' E 015°11'4 8.6
2017-Oct-19 08:30N 55°17' E 015°05'6 8.9
2017-Oct-19 07:53N 55°13' E 014°58'0 0.0
2017-Oct-19 06:48N 55°13' E 014°58'0 0.0
2017-Oct-19 06:23N 55°13' E 014°58'0 0.0
2017-Oct-19 06:00N 55°13' E 014°58'0 0.0
2017-Oct-19 05:21N 55°13' E 014°58'0 0.0
2017-Oct-19 05:00N 55°13' E 014°58'0 0.0
2017-Oct-19 04:30N 55°13' E 014°58'0 0.0
2017-Oct-19 03:56N 55°13' E 014°58'0 0.0
2017-Oct-19 03:29N 55°13' E 014°58'0 0.0
2017-Oct-19 03:00N 55°13' E 014°58'0 0.0
2017-Oct-19 02:30N 55°13' E 014°58'0 0.0
2017-Oct-19 02:00N 55°13' E 014°58'0 0.0
2017-Oct-19 01:30N 55°13' E 014°58'0 0.0
2017-Oct-19 01:00N 55°13' E 014°58'0 0.0
2017-Oct-19 00:30N 55°13' E 014°58'0 0.0
2017-Oct-18 23:58N 55°13' E 014°58'0 0.0
2017-Oct-18 23:30N 55°13' E 014°58'0 0.0
2017-Oct-18 23:00N 55°13' E 014°58'0 0.0
2017-Oct-18 22:30N 55°13' E 014°58'0 0.0
2017-Oct-18 21:58N 55°13' E 014°58'0 0.0
2017-Oct-18 21:30N 55°13' E 014°58'0 0.0
2017-Oct-18 21:00N 55°13' E 014°58'0 0.0
2017-Oct-18 20:30N 55°13' E 014°58'0 0.0
2017-Oct-18 20:00N 55°13' E 014°58'0 0.0
2017-Oct-18 19:30N 55°13' E 014°58'0 0.0
2017-Oct-18 19:00N 55°13' E 014°58'0 0.0
2017-Oct-18 18:30N 55°13' E 014°58'0 0.0
2017-Oct-18 18:00N 55°13' E 014°58'0 0.0
2017-Oct-18 17:30N 55°13' E 014°58'0 0.0
2017-Oct-18 17:00N 55°13' E 014°58'0 0.0
2017-Oct-18 16:27N 55°13' E 014°58'0 0.0
2017-Oct-18 16:00N 55°13' E 014°58'0 0.0
2017-Oct-18 15:25N 55°13' E 014°58'0 0.0
2017-Oct-18 14:59N 55°13' E 014°58'0 0.0
2017-Oct-18 13:49N 55°13' E 014°58'0 0.0
2017-Oct-18 13:28N 55°13' E 014°58'0 0.0
2017-Oct-18 12:58N 55°13' E 014°58'4 9.4
2017-Oct-18 12:30N 55°16' E 015°04'510.8
2017-Oct-18 12:00N 55°19' E 015°11'0 0.0
2017-Oct-18 11:30N 55°19' E 015°11'0 0.0
2017-Oct-18 11:00N 55°19' E 015°11'0 0.0
2017-Oct-18 10:30N 55°19' E 015°11'0 0.0
2017-Oct-18 10:00N 55°19' E 015°11'0 0.0
2017-Oct-18 09:30N 55°19' E 015°11'0 0.0
2017-Oct-18 09:00N 55°19' E 015°11'5 9.4
2017-Oct-18 08:30N 55°17' E 015°04'510.9
2017-Oct-18 08:00N 55°13' E 014°58'0 0.0
2017-Oct-18 07:29N 55°13' E 014°58'0 0.0
2017-Oct-18 06:59N 55°13' E 014°58'0 0.0
2017-Oct-18 06:29N 55°13' E 014°58'0 0.0
2017-Oct-18 06:00N 55°13' E 014°58'0 0.0
2017-Oct-18 05:30N 55°13' E 014°58'0 0.0
2017-Oct-18 04:59N 55°13' E 014°58'0 0.0
2017-Oct-18 04:30N 55°13' E 014°58'0 0.0
2017-Oct-18 04:00N 55°13' E 014°58'0 0.0
2017-Oct-18 03:30N 55°13' E 014°58'0 0.0
2017-Oct-18 03:00N 55°13' E 014°58'0 0.0
2017-Oct-18 02:28N 55°13' E 014°58'0 0.0
2017-Oct-18 01:57N 55°13' E 014°58'0 0.0
2017-Oct-18 01:29N 55°13' E 014°58'0 0.0
2017-Oct-18 01:00N 55°13' E 014°58'0 0.0
2017-Oct-18 00:29N 55°13' E 014°58'0 0.0
2017-Oct-17 23:59N 55°13' E 014°58'0 0.0
2017-Oct-17 23:30N 55°13' E 014°58'0 0.0
2017-Oct-17 23:00N 55°13' E 014°58'0 0.0
2017-Oct-17 22:30N 55°13' E 014°58'0 0.0
2017-Oct-17 22:00N 55°13' E 014°58'0 0.0
2017-Oct-17 21:30N 55°13' E 014°58'0 0.0
2017-Oct-17 21:00N 55°13' E 014°58'0 0.0
2017-Oct-17 20:30N 55°13' E 014°58'0 0.0
2017-Oct-17 20:00N 55°13' E 014°58'0 0.0
2017-Oct-17 19:30N 55°13' E 014°58'0 0.0
2017-Oct-17 18:59N 55°13' E 014°58'0 0.0
2017-Oct-17 18:30N 55°13' E 014°58'0 0.0
2017-Oct-17 17:59N 55°13' E 014°58'0 0.0
2017-Oct-17 17:30N 55°13' E 014°58'0 0.0
2017-Oct-17 17:00N 55°13' E 014°58'0 0.0
2017-Oct-17 16:30N 55°13' E 014°58'0 0.0
2017-Oct-17 16:00N 55°13' E 014°58'0 0.0
2017-Oct-17 15:30N 55°13' E 014°58'0 0.0
2017-Oct-17 15:00N 55°13' E 014°58'0 0.0
2017-Oct-17 14:30N 55°13' E 014°58'0 0.0
2017-Oct-17 14:00N 55°13' E 014°58'0 0.0
2017-Oct-17 13:30N 55°13' E 014°58'0 0.0
2017-Oct-17 13:00N 55°13' E 014°58'5 9.8
2017-Oct-17 12:30N 55°15' E 015°05'510.1
2017-Oct-17 12:00N 55°19' E 015°11'0 0.1
2017-Oct-17 11:30N 55°19' E 015°11'0 0.0
2017-Oct-17 11:00N 55°19' E 015°11'0 0.0
2017-Oct-17 10:30N 55°19' E 015°11'0 0.0
2017-Oct-17 10:00N 55°19' E 015°11'0 0.0
2017-Oct-17 09:30N 55°19' E 015°11'0 0.0
2017-Oct-17 09:00N 55°19' E 015°11'4 8.3
2017-Oct-17 08:30N 55°17' E 015°05'611.5
2017-Oct-17 08:00N 55°13' E 014°58'0 0.0
2017-Oct-17 07:30N 55°13' E 014°58'0 0.0
2017-Oct-17 06:58N 55°13' E 014°58'0 0.0
2017-Oct-17 06:30N 55°13' E 014°58'0 0.0
2017-Oct-17 05:42N 55°13' E 014°58'0 0.0
2017-Oct-17 05:27N 55°13' E 014°58'0 0.0
2017-Oct-17 05:00N 55°13' E 014°58'0 0.0
2017-Oct-17 04:30N 55°13' E 014°58'0 0.0
2017-Oct-17 04:00N 55°13' E 014°58'0 0.0
2017-Oct-17 03:13N 55°13' E 014°58'0 0.0
2017-Oct-17 03:00N 55°13' E 014°58'0 0.0
2017-Oct-17 02:24N 55°13' E 014°58'0 0.0
2017-Oct-17 02:00N 55°13' E 014°58'0 0.0
2017-Oct-17 01:30N 55°13' E 014°58'0 0.0
2017-Oct-17 00:58N 55°13' E 014°58'0 0.0
2017-Oct-17 00:29N 55°13' E 014°58'0 0.0
2017-Oct-17 00:00N 55°13' E 014°58'0 0.0
2017-Oct-16 23:30N 55°13' E 014°58'0 0.0
2017-Oct-16 22:59N 55°13' E 014°58'0 0.0
2017-Oct-16 22:26N 55°13' E 014°58'0 0.0
2017-Oct-16 21:59N 55°13' E 014°58'0 0.0
2017-Oct-16 21:23N 55°13' E 014°58'0 0.0
2017-Oct-16 21:00N 55°13' E 014°58'0 0.0
2017-Oct-16 20:30N 55°13' E 014°58'0 0.0
2017-Oct-16 20:00N 55°13' E 014°58'0 0.0
2017-Oct-16 19:30N 55°13' E 014°58'0 0.0
2017-Oct-16 19:00N 55°13' E 014°58'0 0.0
2017-Oct-16 18:30N 55°13' E 014°58'0 0.0
2017-Oct-16 18:00N 55°13' E 014°58'0 0.0
2017-Oct-16 17:30N 55°13' E 014°58'0 0.0
2017-Oct-16 17:00N 55°13' E 014°58'0 0.0
2017-Oct-16 16:29N 55°13' E 014°58'0 0.1
2017-Oct-16 15:44N 55°13' E 014°58'310.6
2017-Oct-16 15:29N 55°14' E 014°54'2 3.5
2017-Oct-16 14:46N 55°15' E 014°50'0 0.0
2017-Oct-16 14:12N 55°15' E 014°50'1 0.9
2017-Oct-16 13:25N 55°15' E 014°51'4 9.8
2017-Oct-16 12:58N 55°13' E 014°58'4 9.4
2017-Oct-16 12:30N 55°16' E 015°04'611.0
2017-Oct-16 12:00N 55°19' E 015°11'0 0.1
2017-Oct-16 11:30N 55°19' E 015°11'0 0.0
2017-Oct-16 11:00N 55°19' E 015°11'0 0.0
2017-Oct-16 10:30N 55°19' E 015°11'0 0.0
2017-Oct-16 10:00N 55°19' E 015°11'0 0.0
2017-Oct-16 09:30N 55°19' E 015°11'0 0.0
2017-Oct-16 09:00N 55°19' E 015°11'5 9.1
2017-Oct-16 08:30N 55°17' E 015°04'510.8
2017-Oct-16 08:00N 55°13' E 014°58'0 0.0
2017-Oct-16 07:30N 55°13' E 014°58'0 0.0
2017-Oct-16 07:00N 55°13' E 014°58'0 0.0
2017-Oct-16 06:28N 55°13' E 014°58'0 0.0
2017-Oct-16 05:36N 55°13' E 014°58'0 0.0
2017-Oct-16 05:30N 55°13' E 014°58'0 0.0
2017-Oct-16 04:52N 55°13' E 014°58'0 0.0
2017-Oct-16 04:23N 55°13' E 014°58'0 0.0
2017-Oct-16 03:59N 55°13' E 014°58'0 0.0
2017-Oct-16 03:27N 55°13' E 014°58'0 0.0
2017-Oct-16 02:58N 55°13' E 014°58'0 0.0
2017-Oct-16 02:29N 55°13' E 014°58'0 0.0
2017-Oct-16 01:51N 55°13' E 014°58'0 0.0
2017-Oct-16 01:30N 55°13' E 014°58'0 0.0
2017-Oct-16 00:59N 55°13' E 014°58'0 0.0
2017-Oct-16 00:29N 55°13' E 014°58'0 0.0
2017-Oct-15 23:35N 55°13' E 014°58'0 0.0
2017-Oct-15 22:35N 55°13' E 014°58'0 0.0
2017-Oct-15 22:28N 55°13' E 014°58'0 0.0
2017-Oct-15 22:00N 55°13' E 014°58'0 0.0
2017-Oct-15 21:30N 55°13' E 014°58'0 0.0
2017-Oct-15 21:00N 55°13' E 014°58'0 0.0
2017-Oct-15 20:29N 55°13' E 014°58'0 0.0
2017-Oct-15 19:59N 55°13' E 014°58'0 0.0
2017-Oct-15 19:30N 55°13' E 014°58'0 0.0
2017-Oct-15 19:00N 55°13' E 014°58'0 0.0
2017-Oct-15 18:30N 55°13' E 014°58'0 0.0
2017-Oct-15 18:00N 55°13' E 014°58'0 0.0
2017-Oct-15 17:30N 55°13' E 014°58'0 0.0
2017-Oct-15 17:00N 55°13' E 014°58'0 0.0
2017-Oct-15 16:25N 55°13' E 014°58'0 0.0
2017-Oct-15 15:44N 55°13' E 014°58'0 0.0
2017-Oct-15 15:30N 55°13' E 014°58'0 0.0
2017-Oct-15 15:00N 55°13' E 014°58'0 0.0
2017-Oct-15 13:59N 55°13' E 014°58'0 0.0
2017-Oct-15 13:30N 55°13' E 014°58'0 0.1
2017-Oct-15 12:51N 55°13' E 014°58'412.1
2017-Oct-15 12:30N 55°16' E 015°04'611.1
2017-Oct-15 12:00N 55°19' E 015°11'0 0.0
2017-Oct-15 11:30N 55°19' E 015°11'0 0.0
2017-Oct-15 11:00N 55°19' E 015°11'0 0.0
2017-Oct-15 10:30N 55°19' E 015°11'0 0.0
2017-Oct-15 10:00N 55°19' E 015°11'0 0.0
2017-Oct-15 09:30N 55°19' E 015°11'0 0.0
2017-Oct-15 09:00N 55°19' E 015°11'4 8.1
2017-Oct-15 08:30N 55°17' E 015°06'611.5
2017-Oct-15 08:00N 55°13' E 014°58'0 0.0
2017-Oct-15 07:30N 55°13' E 014°58'0 0.0
2017-Oct-15 07:00N 55°13' E 014°58'0 0.0
2017-Oct-15 06:28N 55°13' E 014°58'0 0.0
2017-Oct-15 06:00N 55°13' E 014°58'0 0.0
2017-Oct-15 05:26N 55°13' E 014°58'0 0.0
2017-Oct-15 04:24N 55°13' E 014°58'0 0.0
2017-Oct-15 04:00N 55°13' E 014°58'0 0.0
2017-Oct-15 03:28N 55°13' E 014°58'0 0.0
2017-Oct-15 03:00N 55°13' E 014°58'0 0.0
2017-Oct-15 02:30N 55°13' E 014°58'0 0.0
2017-Oct-15 02:00N 55°13' E 014°58'0 0.0
2017-Oct-15 01:29N 55°13' E 014°58'0 0.0
2017-Oct-15 01:00N 55°13' E 014°58'0 0.0
2017-Oct-15 00:29N 55°13' E 014°58'0 0.0
2017-Oct-15 00:00N 55°13' E 014°58'0 0.0
2017-Oct-14 23:30N 55°13' E 014°58'0 0.0
2017-Oct-14 23:00N 55°13' E 014°58'0 0.0
2017-Oct-14 22:30N 55°13' E 014°58'0 0.0
2017-Oct-14 21:59N 55°13' E 014°58'0 0.0
2017-Oct-14 21:30N 55°13' E 014°58'0 0.0
2017-Oct-14 21:00N 55°13' E 014°58'0 0.0
2017-Oct-14 20:30N 55°13' E 014°58'0 0.0
2017-Oct-14 20:00N 55°13' E 014°58'0 0.0
2017-Oct-14 19:30N 55°13' E 014°58'0 0.0
2017-Oct-14 18:59N 55°13' E 014°58'0 0.0
2017-Oct-14 18:28N 55°13' E 014°58'0 0.0
2017-Oct-14 18:00N 55°13' E 014°58'0 0.0
2017-Oct-14 17:30N 55°13' E 014°58'0 0.0
2017-Oct-14 17:00N 55°13' E 014°58'0 0.0
2017-Oct-14 16:29N 55°13' E 014°58'0 0.0
2017-Oct-14 15:58N 55°13' E 014°58'0 0.0
2017-Oct-14 15:30N 55°13' E 014°58'0 0.0
2017-Oct-14 14:59N 55°13' E 014°58'0 0.0
2017-Oct-14 14:29N 55°13' E 014°58'0 0.0
2017-Oct-14 14:00N 55°13' E 014°58'0 0.0
2017-Oct-14 13:30N 55°13' E 014°58'0 0.0
2017-Oct-14 13:00N 55°13' E 014°58'5 9.6
2017-Oct-14 12:30N 55°16' E 015°05'510.1
2017-Oct-14 12:00N 55°19' E 015°11'0 0.0
2017-Oct-14 11:30N 55°19' E 015°11'0 0.0
2017-Oct-14 11:00N 55°19' E 015°11'0 0.0
2017-Oct-14 10:30N 55°19' E 015°11'0 0.0
2017-Oct-14 10:00N 55°19' E 015°11'0 0.0
2017-Oct-14 09:30N 55°19' E 015°11'0 0.0
2017-Oct-14 09:00N 55°19' E 015°11'5 9.3
2017-Oct-14 08:30N 55°17' E 015°04'510.3
2017-Oct-14 07:59N 55°13' E 014°58'0 0.0
2017-Oct-14 07:27N 55°13' E 014°58'0 0.0
2017-Oct-14 07:00N 55°13' E 014°58'0 0.0
2017-Oct-14 06:29N 55°13' E 014°58'0 0.0
2017-Oct-14 05:58N 55°13' E 014°58'0 0.0
2017-Oct-14 05:30N 55°13' E 014°58'0 0.0
2017-Oct-14 04:57N 55°13' E 014°58'0 0.0
2017-Oct-14 04:26N 55°13' E 014°58'0 0.0
2017-Oct-14 03:59N 55°13' E 014°58'0 0.0
2017-Oct-14 03:24N 55°13' E 014°58'0 0.0
2017-Oct-14 02:56N 55°13' E 014°58'0 0.0
2017-Oct-14 02:29N 55°13' E 014°58'0 0.0
2017-Oct-14 01:55N 55°13' E 014°58'0 0.0
2017-Oct-14 01:17N 55°13' E 014°58'0 0.0
2017-Oct-14 00:58N 55°13' E 014°58'0 0.0
2017-Oct-14 00:23N 55°13' E 014°58'0 0.0
2017-Oct-14 00:00N 55°13' E 014°58'0 0.0
2017-Oct-13 23:30N 55°13' E 014°58'0 0.0
2017-Oct-13 23:00N 55°13' E 014°58'0 0.0
2017-Oct-13 22:30N 55°13' E 014°58'0 0.0
2017-Oct-13 21:50N 55°13' E 014°58'0 0.0
2017-Oct-13 21:29N 55°13' E 014°58'0 0.0
2017-Oct-13 21:00N 55°13' E 014°58'0 0.0
2017-Oct-13 20:28N 55°13' E 014°58'0 0.0
2017-Oct-13 20:00N 55°13' E 014°58'0 0.0
2017-Oct-13 19:23N 55°13' E 014°58'0 0.0
2017-Oct-13 18:56N 55°13' E 014°58'0 0.0
2017-Oct-13 18:30N 55°13' E 014°58'0 0.0
2017-Oct-13 17:59N 55°13' E 014°58'0 0.0
2017-Oct-13 17:30N 55°13' E 014°58'0 0.0
2017-Oct-13 17:00N 55°13' E 014°58'0 0.0
2017-Oct-13 16:30N 55°13' E 014°58'0 0.0
2017-Oct-13 15:56N 55°13' E 014°58'0 0.0
2017-Oct-13 15:28N 55°13' E 014°58'0 0.0
2017-Oct-13 15:00N 55°13' E 014°58'0 0.0
2017-Oct-13 14:30N 55°13' E 014°58'0 0.0
2017-Oct-13 13:59N 55°13' E 014°58'0 0.0
2017-Oct-13 13:30N 55°13' E 014°58'0 0.0
2017-Oct-13 12:59N 55°13' E 014°58'4 9.0
2017-Oct-13 12:30N 55°16' E 015°04'511.0
2017-Oct-13 12:00N 55°19' E 015°11'0 0.0
2017-Oct-13 11:30N 55°19' E 015°11'0 0.0
2017-Oct-13 11:00N 55°19' E 015°11'0 0.0
2017-Oct-13 10:30N 55°19' E 015°11'0 0.0
2017-Oct-13 10:00N 55°19' E 015°11'0 0.0
2017-Oct-13 09:30N 55°19' E 015°11'0 0.0
2017-Oct-13 09:00N 55°19' E 015°11'611.0
2017-Oct-13 08:30N 55°17' E 015°02'510.0
2017-Oct-13 08:00N 55°13' E 014°58'0 0.0
2017-Oct-13 06:45N 55°13' E 014°58'0 0.0
2017-Oct-13 06:29N 55°13' E 014°58'0 0.0
2017-Oct-13 06:00N 55°13' E 014°58'0 0.0
2017-Oct-13 05:30N 55°13' E 014°58'0 0.0
2017-Oct-13 04:44N 55°13' E 014°58'0 0.0
2017-Oct-13 04:17N 55°13' E 014°58'0 0.0
2017-Oct-13 03:57N 55°13' E 014°58'0 0.0
2017-Oct-13 02:59N 55°13' E 014°58'0 0.0
2017-Oct-13 02:20N 55°13' E 014°58'0 0.0
2017-Oct-13 01:52N 55°13' E 014°58'0 0.0
2017-Oct-13 01:27N 55°13' E 014°58'0 0.0
2017-Oct-13 01:00N 55°13' E 014°58'0 0.0
2017-Oct-13 00:28N 55°13' E 014°58'0 0.0
2017-Oct-12 23:58N 55°13' E 014°58'0 0.0
2017-Oct-12 23:26N 55°13' E 014°58'  
Track history (hours):
 
Tides and Currents Weather Stations Pressure Air Temp Water Temp Dewpoint Dewpoint Depression Visibility Wind Speed Wind Dir Waves Ship Positions

Ertholm

Last reported at 2017-Oct-22 22:56 UTC. Time now 2017-Oct-23 00:55 UTC.
Position N 55°15' E 014°50'.

Length 38 m; draft 2.3 m.

Type: Ship. MMSI: 219000751.

Date/timePositionNaut miles runAvg speedWind from/ knotsBaromVisibWave heightAir tempDewpointWater temp
2017-Oct-22 22:56N 55°15' E 014°50'0 0.0
2017-Oct-22 21:08N 55°15' E 014°50'0 0.0
2017-Oct-22 20:40N 55°15' E 014°50'0 0.0
2017-Oct-22 20:27N 55°15' E 014°50'0 0.0
2017-Oct-22 17:53N 55°15' E 014°50'0 0.0
2017-Oct-22 17:19N 55°15' E 014°50'0 0.0
2017-Oct-22 15:47N 55°15' E 014°50'0 0.0
2017-Oct-22 13:52N 55°15' E 014°50'1 1.6
2017-Oct-22 13:21N 55°15' E 014°52'411.5
2017-Oct-22 13:00N 55°13' E 014°58'4 8.5
2017-Oct-22 12:30N 55°15' E 015°04'611.4
2017-Oct-22 12:00N 55°19' E 015°11'0 0.0
2017-Oct-22 11:30N 55°19' E 015°11'0 0.0
2017-Oct-22 11:00N 55°19' E 015°11'0 0.0
2017-Oct-22 10:30N 55°19' E 015°11'0 0.0
2017-Oct-22 10:00N 55°19' E 015°11'0 0.0
2017-Oct-22 09:30N 55°19' E 015°11'0 0.0
2017-Oct-22 09:00N 55°19' E 015°11'4 8.4
2017-Oct-22 08:30N 55°16' E 015°06'6 2.8
2017-Oct-22 06:31N 55°13' E 014°58'0 0.0
2017-Oct-22 06:29N 55°13' E 014°58'0 0.0
2017-Oct-22 05:59N 55°13' E 014°58'0 0.0
2017-Oct-22 05:28N 55°13' E 014°58'0 0.0
2017-Oct-22 02:49N 55°13' E 014°58'0 0.0
2017-Oct-22 02:30N 55°13' E 014°58'0 0.0
2017-Oct-22 01:59N 55°13' E 014°58'0 0.0
2017-Oct-22 01:28N 55°13' E 014°58'0 0.0
2017-Oct-22 00:58N 55°13' E 014°58'0 0.0
2017-Oct-22 00:30N 55°13' E 014°58'0 0.0
2017-Oct-21 22:21N 55°13' E 014°58'0 0.0
2017-Oct-21 21:58N 55°13' E 014°58'0 0.0
2017-Oct-21 21:27N 55°13' E 014°58'0 0.0
2017-Oct-21 20:35N 55°13' E 014°58'0 0.0
2017-Oct-21 20:25N 55°13' E 014°58'0 0.0
2017-Oct-21 20:00N 55°13' E 014°58'0 0.0
2017-Oct-21 19:30N 55°13' E 014°58'0 0.0
2017-Oct-21 18:57N 55°13' E 014°58'0 0.0
2017-Oct-21 17:54N 55°13' E 014°58'0 0.0
2017-Oct-21 16:34N 55°13' E 014°58'0 0.0
2017-Oct-21 16:18N 55°13' E 014°58'0 0.0
2017-Oct-21 15:56N 55°13' E 014°58'0 0.0
2017-Oct-21 15:28N 55°13' E 014°58'0 0.0
2017-Oct-21 14:52N 55°13' E 014°58'0 0.0
2017-Oct-21 13:56N 55°13' E 014°58'0 0.0
2017-Oct-21 13:29N 55°13' E 014°58'0 0.1
2017-Oct-21 12:58N 55°13' E 014°58'511.7
2017-Oct-21 12:30N 55°16' E 015°06'4 8.8
2017-Oct-21 12:00N 55°19' E 015°11'0 0.1
2017-Oct-21 11:30N 55°19' E 015°11'0 0.0
2017-Oct-21 11:00N 55°19' E 015°11'0 0.0
2017-Oct-21 10:30N 55°19' E 015°11'0 0.0
2017-Oct-21 10:00N 55°19' E 015°11'0 0.0
2017-Oct-21 09:30N 55°19' E 015°11'0 0.0
2017-Oct-21 09:00N 55°19' E 015°11'4 8.0
2017-Oct-21 08:30N 55°17' E 015°06'610.2
2017-Oct-21 07:56N 55°13' E 014°58'0 0.0
2017-Oct-21 07:30N 55°13' E 014°58'0 0.0
2017-Oct-21 06:02N 55°13' E 014°58'0 0.0
2017-Oct-21 05:58N 55°13' E 014°58'0 0.0
2017-Oct-21 05:13N 55°13' E 014°58'0 0.0
2017-Oct-21 04:59N 55°13' E 014°58'0 0.0
2017-Oct-21 04:29N 55°13' E 014°58'0 0.0
2017-Oct-21 04:00N 55°13' E 014°58'0 0.0
2017-Oct-21 03:28N 55°13' E 014°58'0 0.0
2017-Oct-21 02:58N 55°13' E 014°58'0 0.0
2017-Oct-21 01:14N 55°13' E 014°58'0 0.0
2017-Oct-21 00:49N 55°13' E 014°58'0 0.0
2017-Oct-21 00:26N 55°13' E 014°58'0 0.0
2017-Oct-20 23:46N 55°13' E 014°58'0 0.0
2017-Oct-20 23:30N 55°13' E 014°58'0 0.0
2017-Oct-20 22:53N 55°13' E 014°58'0 0.0
2017-Oct-20 22:25N 55°13' E 014°58'0 0.0
2017-Oct-20 21:57N 55°13' E 014°58'0 0.0
2017-Oct-20 21:05N 55°13' E 014°58'0 0.0
2017-Oct-20 20:58N 55°13' E 014°58'0 0.0
2017-Oct-20 20:30N 55°13' E 014°58'0 0.0
2017-Oct-20 19:57N 55°13' E 014°58'0 0.0
2017-Oct-20 19:29N 55°13' E 014°58'0 0.0
2017-Oct-20 19:00N 55°13' E 014°58'0 0.0
2017-Oct-20 18:29N 55°13' E 014°58'0 0.0
2017-Oct-20 18:00N 55°13' E 014°58'0 0.0
2017-Oct-20 17:30N 55°13' E 014°58'0 0.0
2017-Oct-20 17:00N 55°13' E 014°58'0 0.0
2017-Oct-20 16:30N 55°13' E 014°58'0 0.0
2017-Oct-20 15:58N 55°13' E 014°58'0 0.0
2017-Oct-20 15:30N 55°13' E 014°58'0 0.0
2017-Oct-20 15:00N 55°13' E 014°58'0 0.0
2017-Oct-20 13:57N 55°13' E 014°58'0 0.0
2017-Oct-20 13:30N 55°13' E 014°58'0 0.1
2017-Oct-20 12:55N 55°13' E 014°58'511.2
2017-Oct-20 12:30N 55°16' E 015°04'510.1
2017-Oct-20 12:00N 55°19' E 015°11'0 0.0
2017-Oct-20 11:30N 55°19' E 015°11'0 0.0
2017-Oct-20 11:00N 55°19' E 015°11'0 0.0
2017-Oct-20 10:30N 55°19' E 015°11'0 0.0
2017-Oct-20 10:00N 55°19' E 015°11'0 0.0
2017-Oct-20 09:30N 55°19' E 015°11'0 0.0
2017-Oct-20 09:00N 55°19' E 015°11'5 9.8
2017-Oct-20 08:30N 55°16' E 015°05'5 9.8
2017-Oct-20 08:00N 55°13' E 014°58'0 0.0
2017-Oct-20 07:30N 55°13' E 014°58'0 0.0
2017-Oct-20 07:00N 55°13' E 014°58'0 0.0
2017-Oct-20 06:27N 55°13' E 014°58'0 0.0
2017-Oct-20 06:00N 55°13' E 014°58'0 0.0
2017-Oct-20 05:30N 55°13' E 014°58'0 0.0
2017-Oct-20 05:00N 55°13' E 014°58'0 0.0
2017-Oct-20 04:30N 55°13' E 014°58'0 0.0
2017-Oct-20 03:59N 55°13' E 014°58'0 0.0
2017-Oct-20 03:30N 55°13' E 014°58'0 0.0
2017-Oct-20 03:00N 55°13' E 014°58'0 0.0
2017-Oct-20 02:30N 55°13' E 014°58'0 0.0
2017-Oct-20 02:00N 55°13' E 014°58'0 0.0
2017-Oct-20 01:30N 55°13' E 014°58'0 0.0
2017-Oct-20 00:59N 55°13' E 014°58'0 0.0
2017-Oct-20 00:30N 55°13' E 014°58'0 0.0
2017-Oct-19 23:57N 55°13' E 014°58'0 0.0
2017-Oct-19 23:30N 55°13' E 014°58'0 0.0
2017-Oct-19 23:00N 55°13' E 014°58'0 0.0
2017-Oct-19 22:30N 55°13' E 014°58'0 0.0
2017-Oct-19 22:00N 55°13' E 014°58'0 0.0
2017-Oct-19 21:29N 55°13' E 014°58'0 0.0
2017-Oct-19 20:55N 55°13' E 014°58'0 0.0
2017-Oct-19 20:30N 55°13' E 014°58'0 0.0
2017-Oct-19 20:00N 55°13' E 014°58'0 0.0
2017-Oct-19 19:30N 55°13' E 014°58'0 0.0
2017-Oct-19 19:00N 55°13' E 014°58'0 0.0
2017-Oct-19 18:29N 55°13' E 014°58'0 0.0
2017-Oct-19 17:53N 55°13' E 014°58'0 0.0
2017-Oct-19 17:30N 55°13' E 014°58'0 0.0
2017-Oct-19 17:00N 55°13' E 014°58'0 0.0
2017-Oct-19 16:30N 55°13' E 014°58'0 0.0
2017-Oct-19 16:00N 55°13' E 014°58'0 0.0
2017-Oct-19 15:30N 55°13' E 014°58'0 0.0
2017-Oct-19 13:33N 55°13' E 014°58'0 0.0
2017-Oct-19 13:17N 55°13' E 014°58'0 0.3
2017-Oct-19 12:57N 55°13' E 014°58'511.0
2017-Oct-19 12:30N 55°16' E 015°05'5 9.5
2017-Oct-19 12:00N 55°19' E 015°11'0 0.1
2017-Oct-19 11:30N 55°19' E 015°11'0 0.0
2017-Oct-19 11:00N 55°19' E 015°11'0 0.0
2017-Oct-19 10:30N 55°19' E 015°11'0 0.0
2017-Oct-19 10:00N 55°19' E 015°11'0 0.2
2017-Oct-19 09:30N 55°19' E 015°11'0 0.1
2017-Oct-19 09:00N 55°19' E 015°11'4 8.6
2017-Oct-19 08:30N 55°17' E 015°05'6 8.9
2017-Oct-19 07:53N 55°13' E 014°58'0 0.0
2017-Oct-19 06:48N 55°13' E 014°58'0 0.0
2017-Oct-19 06:23N 55°13' E 014°58'0 0.0
2017-Oct-19 06:00N 55°13' E 014°58'0 0.0
2017-Oct-19 05:21N 55°13' E 014°58'0 0.0
2017-Oct-19 05:00N 55°13' E 014°58'0 0.0
2017-Oct-19 04:30N 55°13' E 014°58'0 0.0
2017-Oct-19 03:56N 55°13' E 014°58'0 0.0
2017-Oct-19 03:29N 55°13' E 014°58'0 0.0
2017-Oct-19 03:00N 55°13' E 014°58'0 0.0
2017-Oct-19 02:30N 55°13' E 014°58'0 0.0
2017-Oct-19 02:00N 55°13' E 014°58'0 0.0
2017-Oct-19 01:30N 55°13' E 014°58'0 0.0
2017-Oct-19 01:00N 55°13' E 014°58'0 0.0
2017-Oct-19 00:30N 55°13' E 014°58'0 0.0
2017-Oct-18 23:58N 55°13' E 014°58'0 0.0
2017-Oct-18 23:30N 55°13' E 014°58'0 0.0
2017-Oct-18 23:00N 55°13' E 014°58'0 0.0
2017-Oct-18 22:30N 55°13' E 014°58'0 0.0
2017-Oct-18 21:58N 55°13' E 014°58'0 0.0
2017-Oct-18 21:30N 55°13' E 014°58'0 0.0
2017-Oct-18 21:00N 55°13' E 014°58'0 0.0
2017-Oct-18 20:30N 55°13' E 014°58'0 0.0
2017-Oct-18 20:00N 55°13' E 014°58'0 0.0
2017-Oct-18 19:30N 55°13' E 014°58'0 0.0
2017-Oct-18 19:00N 55°13' E 014°58'0 0.0
2017-Oct-18 18:30N 55°13' E 014°58'0 0.0
2017-Oct-18 18:00N 55°13' E 014°58'0 0.0
2017-Oct-18 17:30N 55°13' E 014°58'0 0.0
2017-Oct-18 17:00N 55°13' E 014°58'0 0.0
2017-Oct-18 16:27N 55°13' E 014°58'0 0.0
2017-Oct-18 16:00N 55°13' E 014°58'0 0.0
2017-Oct-18 15:25N 55°13' E 014°58'0 0.0
2017-Oct-18 14:59N 55°13' E 014°58'0 0.0
2017-Oct-18 13:49N 55°13' E 014°58'0 0.0
2017-Oct-18 13:28N 55°13' E 014°58'0 0.0
2017-Oct-18 12:58N 55°13' E 014°58'4 9.4
2017-Oct-18 12:30N 55°16' E 015°04'510.8
2017-Oct-18 12:00N 55°19' E 015°11'0 0.0
2017-Oct-18 11:30N 55°19' E 015°11'0 0.0
2017-Oct-18 11:00N 55°19' E 015°11'0 0.0
2017-Oct-18 10:30N 55°19' E 015°11'0 0.0
2017-Oct-18 10:00N 55°19' E 015°11'0 0.0
2017-Oct-18 09:30N 55°19' E 015°11'0 0.0
2017-Oct-18 09:00N 55°19' E 015°11'5 9.4
2017-Oct-18 08:30N 55°17' E 015°04'510.9
2017-Oct-18 08:00N 55°13' E 014°58'0 0.0
2017-Oct-18 07:29N 55°13' E 014°58'0 0.0
2017-Oct-18 06:59N 55°13' E 014°58'0 0.0
2017-Oct-18 06:29N 55°13' E 014°58'0 0.0
2017-Oct-18 06:00N 55°13' E 014°58'0 0.0
2017-Oct-18 05:30N 55°13' E 014°58'0 0.0
2017-Oct-18 04:59N 55°13' E 014°58'0 0.0
2017-Oct-18 04:30N 55°13' E 014°58'0 0.0
2017-Oct-18 04:00N 55°13' E 014°58'0 0.0
2017-Oct-18 03:30N 55°13' E 014°58'0 0.0
2017-Oct-18 03:00N 55°13' E 014°58'0 0.0
2017-Oct-18 02:28N 55°13' E 014°58'0 0.0
2017-Oct-18 01:57N 55°13' E 014°58'0 0.0
2017-Oct-18 01:29N 55°13' E 014°58'0 0.0
2017-Oct-18 01:00N 55°13' E 014°58'0 0.0
2017-Oct-18 00:29N 55°13' E 014°58'0 0.0
2017-Oct-17 23:59N 55°13' E 014°58'0 0.0
2017-Oct-17 23:30N 55°13' E 014°58'0 0.0
2017-Oct-17 23:00N 55°13' E 014°58'0 0.0
2017-Oct-17 22:30N 55°13' E 014°58'0 0.0
2017-Oct-17 22:00N 55°13' E 014°58'0 0.0
2017-Oct-17 21:30N 55°13' E 014°58'0 0.0
2017-Oct-17 21:00N 55°13' E 014°58'0 0.0
2017-Oct-17 20:30N 55°13' E 014°58'0 0.0
2017-Oct-17 20:00N 55°13' E 014°58'0 0.0
2017-Oct-17 19:30N 55°13' E 014°58'0 0.0
2017-Oct-17 18:59N 55°13' E 014°58'0 0.0
2017-Oct-17 18:30N 55°13' E 014°58'0 0.0
2017-Oct-17 17:59N 55°13' E 014°58'0 0.0
2017-Oct-17 17:30N 55°13' E 014°58'0 0.0
2017-Oct-17 17:00N 55°13' E 014°58'0 0.0
2017-Oct-17 16:30N 55°13' E 014°58'0 0.0
2017-Oct-17 16:00N 55°13' E 014°58'0 0.0
2017-Oct-17 15:30N 55°13' E 014°58'0 0.0
2017-Oct-17 15:00N 55°13' E 014°58'0 0.0
2017-Oct-17 14:30N 55°13' E 014°58'0 0.0
2017-Oct-17 14:00N 55°13' E 014°58'0 0.0
2017-Oct-17 13:30N 55°13' E 014°58'0 0.0
2017-Oct-17 13:00N 55°13' E 014°58'5 9.8
2017-Oct-17 12:30N 55°15' E 015°05'510.1
2017-Oct-17 12:00N 55°19' E 015°11'0 0.1
2017-Oct-17 11:30N 55°19' E 015°11'0 0.0
2017-Oct-17 11:00N 55°19' E 015°11'0 0.0
2017-Oct-17 10:30N 55°19' E 015°11'0 0.0
2017-Oct-17 10:00N 55°19' E 015°11'0 0.0
2017-Oct-17 09:30N 55°19' E 015°11'0 0.0
2017-Oct-17 09:00N 55°19' E 015°11'4 8.3
2017-Oct-17 08:30N 55°17' E 015°05'611.5
2017-Oct-17 08:00N 55°13' E 014°58'0 0.0
2017-Oct-17 07:30N 55°13' E 014°58'0 0.0
2017-Oct-17 06:58N 55°13' E 014°58'0 0.0
2017-Oct-17 06:30N 55°13' E 014°58'0 0.0
2017-Oct-17 05:42N 55°13' E 014°58'0 0.0
2017-Oct-17 05:27N 55°13' E 014°58'0 0.0
2017-Oct-17 05:00N 55°13' E 014°58'0 0.0
2017-Oct-17 04:30N 55°13' E 014°58'0 0.0
2017-Oct-17 04:00N 55°13' E 014°58'0 0.0
2017-Oct-17 03:13N 55°13' E 014°58'0 0.0
2017-Oct-17 03:00N 55°13' E 014°58'0 0.0
2017-Oct-17 02:24N 55°13' E 014°58'0 0.0
2017-Oct-17 02:00N 55°13' E 014°58'0 0.0
2017-Oct-17 01:30N 55°13' E 014°58'0 0.0
2017-Oct-17 00:58N 55°13' E 014°58'0 0.0
2017-Oct-17 00:29N 55°13' E 014°58'0 0.0
2017-Oct-17 00:00N 55°13' E 014°58'0 0.0
2017-Oct-16 23:30N 55°13' E 014°58'0 0.0
2017-Oct-16 22:59N 55°13' E 014°58'0 0.0
2017-Oct-16 22:26N 55°13' E 014°58'0 0.0
2017-Oct-16 21:59N 55°13' E 014°58'0 0.0
2017-Oct-16 21:23N 55°13' E 014°58'0 0.0
2017-Oct-16 21:00N 55°13' E 014°58'0 0.0
2017-Oct-16 20:30N 55°13' E 014°58'0 0.0
2017-Oct-16 20:00N 55°13' E 014°58'0 0.0
2017-Oct-16 19:30N 55°13' E 014°58'0 0.0
2017-Oct-16 19:00N 55°13' E 014°58'0 0.0
2017-Oct-16 18:30N 55°13' E 014°58'0 0.0
2017-Oct-16 18:00N 55°13' E 014°58'0 0.0
2017-Oct-16 17:30N 55°13' E 014°58'0 0.0
2017-Oct-16 17:00N 55°13' E 014°58'0 0.0
2017-Oct-16 16:29N 55°13' E 014°58'0 0.1
2017-Oct-16 15:44N 55°13' E 014°58'310.6
2017-Oct-16 15:29N 55°14' E 014°54'2 3.5
2017-Oct-16 14:46N 55°15' E 014°50'0 0.0
2017-Oct-16 14:12N 55°15' E 014°50'1 0.9
2017-Oct-16 13:25N 55°15' E 014°51'4 9.8
2017-Oct-16 12:58N 55°13' E 014°58'4 9.4
2017-Oct-16 12:30N 55°16' E 015°04'611.0
2017-Oct-16 12:00N 55°19' E 015°11'0 0.1
2017-Oct-16 11:30N 55°19' E 015°11'0 0.0
2017-Oct-16 11:00N 55°19' E 015°11'0 0.0
2017-Oct-16 10:30N 55°19' E 015°11'0 0.0
2017-Oct-16 10:00N 55°19' E 015°11'0 0.0
2017-Oct-16 09:30N 55°19' E 015°11'0 0.0
2017-Oct-16 09:00N 55°19' E 015°11'5 9.1
2017-Oct-16 08:30N 55°17' E 015°04'510.8
2017-Oct-16 08:00N 55°13' E 014°58'0 0.0
2017-Oct-16 07:30N 55°13' E 014°58'0 0.0
2017-Oct-16 07:00N 55°13' E 014°58'0 0.0
2017-Oct-16 06:28N 55°13' E 014°58'0 0.0
2017-Oct-16 05:36N 55°13' E 014°58'0 0.0
2017-Oct-16 05:30N 55°13' E 014°58'0 0.0
2017-Oct-16 04:52N 55°13' E 014°58'0 0.0
2017-Oct-16 04:23N 55°13' E 014°58'0 0.0
2017-Oct-16 03:59N 55°13' E 014°58'0 0.0
2017-Oct-16 03:27N 55°13' E 014°58'0 0.0
2017-Oct-16 02:58N 55°13' E 014°58'0 0.0
2017-Oct-16 02:29N 55°13' E 014°58'0 0.0
2017-Oct-16 01:51N 55°13' E 014°58'0 0.0
2017-Oct-16 01:30N 55°13' E 014°58'0 0.0
2017-Oct-16 00:59N 55°13' E 014°58'0 0.0
2017-Oct-16 00:29N 55°13' E 014°58'0 0.0
2017-Oct-15 23:35N 55°13' E 014°58'0 0.0
2017-Oct-15 22:35N 55°13' E 014°58'0 0.0
2017-Oct-15 22:28N 55°13' E 014°58'0 0.0
2017-Oct-15 22:00N 55°13' E 014°58'0 0.0
2017-Oct-15 21:30N 55°13' E 014°58'0 0.0
2017-Oct-15 21:00N 55°13' E 014°58'0 0.0
2017-Oct-15 20:29N 55°13' E 014°58'0 0.0
2017-Oct-15 19:59N 55°13' E 014°58'0 0.0
2017-Oct-15 19:30N 55°13' E 014°58'0 0.0
2017-Oct-15 19:00N 55°13' E 014°58'0 0.0
2017-Oct-15 18:30N 55°13' E 014°58'0 0.0
2017-Oct-15 18:00N 55°13' E 014°58'0 0.0
2017-Oct-15 17:30N 55°13' E 014°58'0 0.0
2017-Oct-15 17:00N 55°13' E 014°58'0 0.0
2017-Oct-15 16:25N 55°13' E 014°58'0 0.0
2017-Oct-15 15:44N 55°13' E 014°58'0 0.0
2017-Oct-15 15:30N 55°13' E 014°58'0 0.0
2017-Oct-15 15:00N 55°13' E 014°58'0 0.0
2017-Oct-15 13:59N 55°13' E 014°58'0 0.0
2017-Oct-15 13:30N 55°13' E 014°58'0 0.1
2017-Oct-15 12:51N 55°13' E 014°58'412.1
2017-Oct-15 12:30N 55°16' E 015°04'611.1
2017-Oct-15 12:00N 55°19' E 015°11'0 0.0
2017-Oct-15 11:30N 55°19' E 015°11'0 0.0
2017-Oct-15 11:00N 55°19' E 015°11'0 0.0
2017-Oct-15 10:30N 55°19' E 015°11'0 0.0
2017-Oct-15 10:00N 55°19' E 015°11'0 0.0
2017-Oct-15 09:30N 55°19' E 015°11'0 0.0
2017-Oct-15 09:00N 55°19' E 015°11'4 8.1
2017-Oct-15 08:30N 55°17' E 015°06'611.5
2017-Oct-15 08:00N 55°13' E 014°58'0 0.0
2017-Oct-15 07:30N 55°13' E 014°58'0 0.0
2017-Oct-15 07:00N 55°13' E 014°58'0 0.0
2017-Oct-15 06:28N 55°13' E 014°58'0 0.0
2017-Oct-15 06:00N 55°13' E 014°58'0 0.0
2017-Oct-15 05:26N 55°13' E 014°58'0 0.0
2017-Oct-15 04:24N 55°13' E 014°58'0 0.0
2017-Oct-15 04:00N 55°13' E 014°58'0 0.0
2017-Oct-15 03:28N 55°13' E 014°58'0 0.0
2017-Oct-15 03:00N 55°13' E 014°58'0 0.0
2017-Oct-15 02:30N 55°13' E 014°58'0 0.0
2017-Oct-15 02:00N 55°13' E 014°58'0 0.0
2017-Oct-15 01:29N 55°13' E 014°58'0 0.0
2017-Oct-15 01:00N 55°13' E 014°58'0 0.0
2017-Oct-15 00:29N 55°13' E 014°58'0 0.0
2017-Oct-15 00:00N 55°13' E 014°58'0 0.0
2017-Oct-14 23:30N 55°13' E 014°58'0 0.0
2017-Oct-14 23:00N 55°13' E 014°58'0 0.0
2017-Oct-14 22:30N 55°13' E 014°58'0 0.0
2017-Oct-14 21:59N 55°13' E 014°58'0 0.0
2017-Oct-14 21:30N 55°13' E 014°58'0 0.0
2017-Oct-14 21:00N 55°13' E 014°58'0 0.0
2017-Oct-14 20:30N 55°13' E 014°58'0 0.0
2017-Oct-14 20:00N 55°13' E 014°58'0 0.0
2017-Oct-14 19:30N 55°13' E 014°58'0 0.0
2017-Oct-14 18:59N 55°13' E 014°58'0 0.0
2017-Oct-14 18:28N 55°13' E 014°58'0 0.0
2017-Oct-14 18:00N 55°13' E 014°58'0 0.0
2017-Oct-14 17:30N 55°13' E 014°58'0 0.0
2017-Oct-14 17:00N 55°13' E 014°58'0 0.0
2017-Oct-14 16:29N 55°13' E 014°58'0 0.0
2017-Oct-14 15:58N 55°13' E 014°58'0 0.0
2017-Oct-14 15:30N 55°13' E 014°58'0 0.0
2017-Oct-14 14:59N 55°13' E 014°58'0 0.0
2017-Oct-14 14:29N 55°13' E 014°58'0 0.0
2017-Oct-14 14:00N 55°13' E 014°58'0 0.0
2017-Oct-14 13:30N 55°13' E 014°58'0 0.0
2017-Oct-14 13:00N 55°13' E 014°58'5 9.6
2017-Oct-14 12:30N 55°16' E 015°05'510.1
2017-Oct-14 12:00N 55°19' E 015°11'0 0.0
2017-Oct-14 11:30N 55°19' E 015°11'0 0.0
2017-Oct-14 11:00N 55°19' E 015°11'0 0.0
2017-Oct-14 10:30N 55°19' E 015°11'0 0.0
2017-Oct-14 10:00N 55°19' E 015°11'0 0.0
2017-Oct-14 09:30N 55°19' E 015°11'0 0.0
2017-Oct-14 09:00N 55°19' E 015°11'5 9.3
2017-Oct-14 08:30N 55°17' E 015°04'510.3
2017-Oct-14 07:59N 55°13' E 014°58'0 0.0
2017-Oct-14 07:27N 55°13' E 014°58'0 0.0
2017-Oct-14 07:00N 55°13' E 014°58'0 0.0
2017-Oct-14 06:29N 55°13' E 014°58'0 0.0
2017-Oct-14 05:58N 55°13' E 014°58'0 0.0
2017-Oct-14 05:30N 55°13' E 014°58'0 0.0
2017-Oct-14 04:57N 55°13' E 014°58'0 0.0
2017-Oct-14 04:26N 55°13' E 014°58'0 0.0
2017-Oct-14 03:59N 55°13' E 014°58'0 0.0
2017-Oct-14 03:24N 55°13' E 014°58'0 0.0
2017-Oct-14 02:56N 55°13' E 014°58'0 0.0
2017-Oct-14 02:29N 55°13' E 014°58'0 0.0
2017-Oct-14 01:55N 55°13' E 014°58'0 0.0
2017-Oct-14 01:17N 55°13' E 014°58'0 0.0
2017-Oct-14 00:58N 55°13' E 014°58'0 0.0
2017-Oct-14 00:23N 55°13' E 014°58'0 0.0
2017-Oct-14 00:00N 55°13' E 014°58'0 0.0
2017-Oct-13 23:30N 55°13' E 014°58'0 0.0
2017-Oct-13 23:00N 55°13' E 014°58'0 0.0
2017-Oct-13 22:30N 55°13' E 014°58'0 0.0
2017-Oct-13 21:50N 55°13' E 014°58'0 0.0
2017-Oct-13 21:29N 55°13' E 014°58'0 0.0
2017-Oct-13 21:00N 55°13' E 014°58'0 0.0
2017-Oct-13 20:28N 55°13' E 014°58'0 0.0
2017-Oct-13 20:00N 55°13' E 014°58'0 0.0
2017-Oct-13 19:23N 55°13' E 014°58'0 0.0
2017-Oct-13 18:56N 55°13' E 014°58'0 0.0
2017-Oct-13 18:30N 55°13' E 014°58'0 0.0
2017-Oct-13 17:59N 55°13' E 014°58'0 0.0
2017-Oct-13 17:30N 55°13' E 014°58'0 0.0
2017-Oct-13 17:00N 55°13' E 014°58'0 0.0
2017-Oct-13 16:30N 55°13' E 014°58'0 0.0
2017-Oct-13 15:56N 55°13' E 014°58'0 0.0
2017-Oct-13 15:28N 55°13' E 014°58'0 0.0
2017-Oct-13 15:00N 55°13' E 014°58'0 0.0
2017-Oct-13 14:30N 55°13' E 014°58'0 0.0
2017-Oct-13 13:59N 55°13' E 014°58'0 0.0
2017-Oct-13 13:30N 55°13' E 014°58'0 0.0
2017-Oct-13 12:59N 55°13' E 014°58'4 9.0
2017-Oct-13 12:30N 55°16' E 015°04'511.0
2017-Oct-13 12:00N 55°19' E 015°11'0 0.0
2017-Oct-13 11:30N 55°19' E 015°11'0 0.0
2017-Oct-13 11:00N 55°19' E 015°11'0 0.0
2017-Oct-13 10:30N 55°19' E 015°11'0 0.0
2017-Oct-13 10:00N 55°19' E 015°11'0 0.0
2017-Oct-13 09:30N 55°19' E 015°11'0 0.0
2017-Oct-13 09:00N 55°19' E 015°11'611.0
2017-Oct-13 08:30N 55°17' E 015°02'510.0
2017-Oct-13 08:00N 55°13' E 014°58'0 0.0
2017-Oct-13 06:45N 55°13' E 014°58'0 0.0
2017-Oct-13 06:29N 55°13' E 014°58'0 0.0
2017-Oct-13 06:00N 55°13' E 014°58'0 0.0
2017-Oct-13 05:30N 55°13' E 014°58'0 0.0
2017-Oct-13 04:44N 55°13' E 014°58'0 0.0
2017-Oct-13 04:17N 55°13' E 014°58'0 0.0
2017-Oct-13 03:57N 55°13' E 014°58'0 0.0
2017-Oct-13 02:59N 55°13' E 014°58'0 0.0
2017-Oct-13 02:20N 55°13' E 014°58'0 0.0
2017-Oct-13 01:52N 55°13' E 014°58'0 0.0
2017-Oct-13 01:27N 55°13' E 014°58'0 0.0
2017-Oct-13 01:00N 55°13' E 014°58'0 0.0
2017-Oct-13 00:28N 55°13' E 014°58'0 0.0
2017-Oct-12 23:58N 55°13' E 014°58'0 0.0
2017-Oct-12 23:26N 55°13' E 014°58'  

Dump ship's entire track history